sensor_id;sensor_type;location;lat;lon;timestamp;temperature;humidity
573;DHT22;271;51.114;13.780;2022-08-19T00:00:50;22.50;1.00
573;DHT22;271;51.114;13.780;2022-08-19T00:03:17;22.50;1.00
573;DHT22;271;51.114;13.780;2022-08-19T00:05:44;22.50;1.00
573;DHT22;271;51.114;13.780;2022-08-19T00:08:11;22.50;1.00
573;DHT22;271;51.114;13.780;2022-08-19T00:10:38;22.50;1.00
573;DHT22;271;51.114;13.780;2022-08-19T00:13:06;22.40;1.00
573;DHT22;271;51.114;13.780;2022-08-19T00:15:33;22.40;1.00
573;DHT22;271;51.114;13.780;2022-08-19T00:18:00;22.40;1.00
573;DHT22;271;51.114;13.780;2022-08-19T00:20:27;22.40;1.00
573;DHT22;271;51.114;13.780;2022-08-19T00:22:54;22.30;1.00
573;DHT22;271;51.114;13.780;2022-08-19T00:25:21;22.30;1.00
573;DHT22;271;51.114;13.780;2022-08-19T00:27:48;22.40;1.00
573;DHT22;271;51.114;13.780;2022-08-19T00:30:16;22.30;1.00
573;DHT22;271;51.114;13.780;2022-08-19T00:32:43;22.20;1.00
573;DHT22;271;51.114;13.780;2022-08-19T00:35:10;22.10;1.00
573;DHT22;271;51.114;13.780;2022-08-19T00:37:37;22.20;1.00
573;DHT22;271;51.114;13.780;2022-08-19T00:40:07;22.20;1.00
573;DHT22;271;51.114;13.780;2022-08-19T00:42:34;22.20;1.00
573;DHT22;271;51.114;13.780;2022-08-19T00:45:01;22.20;1.00
573;DHT22;271;51.114;13.780;2022-08-19T00:47:29;22.20;1.00
573;DHT22;271;51.114;13.780;2022-08-19T00:49:57;22.20;1.00
573;DHT22;271;51.114;13.780;2022-08-19T00:52:27;22.20;1.00
573;DHT22;271;51.114;13.780;2022-08-19T00:54:56;22.20;1.00
573;DHT22;271;51.114;13.780;2022-08-19T00:57:28;22.10;1.00
573;DHT22;271;51.114;13.780;2022-08-19T00:59:56;22.20;1.00
573;DHT22;271;51.114;13.780;2022-08-19T01:02:25;22.10;1.00
573;DHT22;271;51.114;13.780;2022-08-19T01:04:54;22.10;1.00
573;DHT22;271;51.114;13.780;2022-08-19T01:07:22;22.10;1.00
573;DHT22;271;51.114;13.780;2022-08-19T01:09:49;22.10;1.00
573;DHT22;271;51.114;13.780;2022-08-19T01:12:16;22.10;1.00
573;DHT22;271;51.114;13.780;2022-08-19T01:14:43;22.00;1.00
573;DHT22;271;51.114;13.780;2022-08-19T01:17:12;22.00;1.00
573;DHT22;271;51.114;13.780;2022-08-19T01:19:41;22.00;1.00
573;DHT22;271;51.114;13.780;2022-08-19T01:22:13;22.00;1.00
573;DHT22;271;51.114;13.780;2022-08-19T01:24:43;21.90;1.00
573;DHT22;271;51.114;13.780;2022-08-19T01:27:09;21.90;1.00
573;DHT22;271;51.114;13.780;2022-08-19T01:29:38;21.90;1.00
573;DHT22;271;51.114;13.780;2022-08-19T01:32:06;21.80;1.00
573;DHT22;271;51.114;13.780;2022-08-19T01:34:33;21.90;1.00
573;DHT22;271;51.114;13.780;2022-08-19T01:37:06;21.90;1.00
573;DHT22;271;51.114;13.780;2022-08-19T01:39:34;21.90;1.00
573;DHT22;271;51.114;13.780;2022-08-19T01:42:02;21.90;1.00
573;DHT22;271;51.114;13.780;2022-08-19T01:44:30;21.90;1.00
573;DHT22;271;51.114;13.780;2022-08-19T01:46:56;21.90;1.00
573;DHT22;271;51.114;13.780;2022-08-19T01:49:24;21.80;1.00
573;DHT22;271;51.114;13.780;2022-08-19T01:51:53;21.80;1.00
573;DHT22;271;51.114;13.780;2022-08-19T01:54:21;21.80;1.00
573;DHT22;271;51.114;13.780;2022-08-19T01:56:49;21.80;1.00
573;DHT22;271;51.114;13.780;2022-08-19T01:59:21;21.90;1.00
573;DHT22;271;51.114;13.780;2022-08-19T02:01:49;21.80;1.00
573;DHT22;271;51.114;13.780;2022-08-19T02:04:16;21.90;1.00
573;DHT22;271;51.114;13.780;2022-08-19T02:06:43;21.80;1.00
573;DHT22;271;51.114;13.780;2022-08-19T02:09:10;21.90;1.00
573;DHT22;271;51.114;13.780;2022-08-19T02:11:37;21.80;1.00
573;DHT22;271;51.114;13.780;2022-08-19T02:14:06;21.80;1.00
573;DHT22;271;51.114;13.780;2022-08-19T02:16:36;21.90;1.00
573;DHT22;271;51.114;13.780;2022-08-19T02:19:04;21.90;1.00
573;DHT22;271;51.114;13.780;2022-08-19T02:21:31;21.80;1.00
573;DHT22;271;51.114;13.780;2022-08-19T02:23:59;21.70;1.00
573;DHT22;271;51.114;13.780;2022-08-19T02:26:26;21.80;1.00
573;DHT22;271;51.114;13.780;2022-08-19T02:28:54;21.70;1.00
573;DHT22;271;51.114;13.780;2022-08-19T02:31:22;21.70;1.00
573;DHT22;271;51.114;13.780;2022-08-19T02:33:51;21.70;1.00
573;DHT22;271;51.114;13.780;2022-08-19T02:36:19;21.80;1.00
573;DHT22;271;51.114;13.780;2022-08-19T02:38:46;21.80;1.00
573;DHT22;271;51.114;13.780;2022-08-19T02:41:15;21.80;1.00
573;DHT22;271;51.114;13.780;2022-08-19T02:43:43;21.80;1.00
573;DHT22;271;51.114;13.780;2022-08-19T02:46:15;21.70;1.00
573;DHT22;271;51.114;13.780;2022-08-19T02:48:43;21.70;1.00
573;DHT22;271;51.114;13.780;2022-08-19T02:51:17;21.80;1.00
573;DHT22;271;51.114;13.780;2022-08-19T02:53:44;21.70;1.00
573;DHT22;271;51.114;13.780;2022-08-19T02:56:11;21.70;1.00
573;DHT22;271;51.114;13.780;2022-08-19T02:58:38;21.70;1.00
573;DHT22;271;51.114;13.780;2022-08-19T03:01:05;21.70;1.00
573;DHT22;271;51.114;13.780;2022-08-19T03:03:32;21.70;1.00
573;DHT22;271;51.114;13.780;2022-08-19T03:06:07;21.70;1.00
573;DHT22;271;51.114;13.780;2022-08-19T03:08:36;21.70;1.00
573;DHT22;271;51.114;13.780;2022-08-19T03:11:04;21.70;1.00
573;DHT22;271;51.114;13.780;2022-08-19T03:13:31;21.70;1.00
573;DHT22;271;51.114;13.780;2022-08-19T03:15:58;21.70;1.00
573;DHT22;271;51.114;13.780;2022-08-19T03:18:25;21.70;1.00
573;DHT22;271;51.114;13.780;2022-08-19T03:20:52;21.70;1.00
573;DHT22;271;51.114;13.780;2022-08-19T03:23:20;21.70;1.00
573;DHT22;271;51.114;13.780;2022-08-19T03:25:50;21.70;1.00
573;DHT22;271;51.114;13.780;2022-08-19T03:28:17;21.70;1.00
573;DHT22;271;51.114;13.780;2022-08-19T03:30:55;21.70;1.00
573;DHT22;271;51.114;13.780;2022-08-19T03:33:22;21.70;1.00
573;DHT22;271;51.114;13.780;2022-08-19T03:36:03;21.70;1.00
573;DHT22;271;51.114;13.780;2022-08-19T03:38:33;21.60;1.00
573;DHT22;271;51.114;13.780;2022-08-19T03:41:05;21.60;1.00
573;DHT22;271;51.114;13.780;2022-08-19T03:43:34;21.60;1.00
573;DHT22;271;51.114;13.780;2022-08-19T03:46:02;21.60;1.00
573;DHT22;271;51.114;13.780;2022-08-19T03:48:30;21.50;1.00
573;DHT22;271;51.114;13.780;2022-08-19T03:50:57;21.60;1.00
573;DHT22;271;51.114;13.780;2022-08-19T03:53:26;21.60;1.00
573;DHT22;271;51.114;13.780;2022-08-19T03:55:54;21.70;1.00
573;DHT22;271;51.114;13.780;2022-08-19T03:58:22;21.70;1.00
573;DHT22;271;51.114;13.780;2022-08-19T04:00:49;21.60;1.00
573;DHT22;271;51.114;13.780;2022-08-19T04:03:16;21.70;1.00
573;DHT22;271;51.114;13.780;2022-08-19T04:05:44;21.60;1.00
573;DHT22;271;51.114;13.780;2022-08-19T04:08:12;21.60;1.00
573;DHT22;271;51.114;13.780;2022-08-19T04:10:39;21.60;1.00
573;DHT22;271;51.114;13.780;2022-08-19T04:13:06;21.70;1.00
573;DHT22;271;51.114;13.780;2022-08-19T04:15:39;21.70;1.00
573;DHT22;271;51.114;13.780;2022-08-19T04:18:07;21.60;1.00
573;DHT22;271;51.114;13.780;2022-08-19T04:20:39;21.70;1.00
573;DHT22;271;51.114;13.780;2022-08-19T04:23:07;21.60;1.00
573;DHT22;271;51.114;13.780;2022-08-19T04:25:37;21.60;1.00
573;DHT22;271;51.114;13.780;2022-08-19T04:28:05;21.60;1.00
573;DHT22;271;51.114;13.780;2022-08-19T04:30:39;21.60;1.00
573;DHT22;271;51.114;13.780;2022-08-19T04:33:06;21.60;1.00
573;DHT22;271;51.114;13.780;2022-08-19T04:35:36;21.60;1.00
573;DHT22;271;51.114;13.780;2022-08-19T04:38:03;21.70;1.00
573;DHT22;271;51.114;13.780;2022-08-19T04:40:30;21.60;1.00
573;DHT22;271;51.114;13.780;2022-08-19T04:43:15;21.70;1.00
573;DHT22;271;51.114;13.780;2022-08-19T04:45:44;21.60;1.00
573;DHT22;271;51.114;13.780;2022-08-19T04:48:11;21.60;1.00
573;DHT22;271;51.114;13.780;2022-08-19T04:50:40;21.60;1.00
573;DHT22;271;51.114;13.780;2022-08-19T04:53:08;21.60;1.00
573;DHT22;271;51.114;13.780;2022-08-19T04:55:39;21.60;1.00
573;DHT22;271;51.114;13.780;2022-08-19T04:58:06;21.70;1.00
573;DHT22;271;51.114;13.780;2022-08-19T05:00:33;21.70;1.00
573;DHT22;271;51.114;13.780;2022-08-19T05:03:01;21.70;1.00
573;DHT22;271;51.114;13.780;2022-08-19T05:05:28;21.70;1.00
573;DHT22;271;51.114;13.780;2022-08-19T05:07:56;21.70;1.00
573;DHT22;271;51.114;13.780;2022-08-19T05:10:23;21.70;1.00
573;DHT22;271;51.114;13.780;2022-08-19T05:12:50;21.70;1.00
573;DHT22;271;51.114;13.780;2022-08-19T05:15:16;21.70;1.00
573;DHT22;271;51.114;13.780;2022-08-19T05:17:44;21.60;1.00
573;DHT22;271;51.114;13.780;2022-08-19T05:20:32;21.70;1.00
573;DHT22;271;51.114;13.780;2022-08-19T05:23:17;21.60;1.00
573;DHT22;271;51.114;13.780;2022-08-19T05:25:44;21.60;1.00
573;DHT22;271;51.114;13.780;2022-08-19T05:28:11;21.60;1.00
573;DHT22;271;51.114;13.780;2022-08-19T05:30:40;21.60;1.00
573;DHT22;271;51.114;13.780;2022-08-19T05:33:09;21.70;1.00
573;DHT22;271;51.114;13.780;2022-08-19T05:35:38;21.60;1.00
573;DHT22;271;51.114;13.780;2022-08-19T05:38:07;21.60;1.00
573;DHT22;271;51.114;13.780;2022-08-19T05:40:34;21.60;1.00
573;DHT22;271;51.114;13.780;2022-08-19T05:43:03;21.60;1.00
573;DHT22;271;51.114;13.780;2022-08-19T05:45:30;21.60;1.00
573;DHT22;271;51.114;13.780;2022-08-19T05:47:57;21.60;1.00
573;DHT22;271;51.114;13.780;2022-08-19T05:50:25;21.50;1.00
573;DHT22;271;51.114;13.780;2022-08-19T05:52:53;21.50;1.00
573;DHT22;271;51.114;13.780;2022-08-19T05:55:20;21.50;1.00
573;DHT22;271;51.114;13.780;2022-08-19T05:57:48;21.50;1.00
573;DHT22;271;51.114;13.780;2022-08-19T06:00:15;21.50;1.00
573;DHT22;271;51.114;13.780;2022-08-19T06:02:42;21.50;1.00
573;DHT22;271;51.114;13.780;2022-08-19T06:05:10;21.50;1.00
573;DHT22;271;51.114;13.780;2022-08-19T06:07:37;21.50;1.00
573;DHT22;271;51.114;13.780;2022-08-19T06:10:08;21.50;1.00
573;DHT22;271;51.114;13.780;2022-08-19T06:12:36;21.50;1.00
573;DHT22;271;51.114;13.780;2022-08-19T06:15:05;21.50;1.00
573;DHT22;271;51.114;13.780;2022-08-19T06:17:33;21.40;1.00
573;DHT22;271;51.114;13.780;2022-08-19T06:20:00;21.40;1.00
573;DHT22;271;51.114;13.780;2022-08-19T06:22:27;21.30;1.00
573;DHT22;271;51.114;13.780;2022-08-19T06:24:55;21.30;1.00
573;DHT22;271;51.114;13.780;2022-08-19T06:27:23;21.20;1.00
573;DHT22;271;51.114;13.780;2022-08-19T06:29:50;21.20;1.00
573;DHT22;271;51.114;13.780;2022-08-19T06:32:18;21.20;1.00
573;DHT22;271;51.114;13.780;2022-08-19T06:34:45;21.10;1.00
573;DHT22;271;51.114;13.780;2022-08-19T06:37:12;21.10;1.00
573;DHT22;271;51.114;13.780;2022-08-19T06:39:41;21.10;1.00
573;DHT22;271;51.114;13.780;2022-08-19T06:42:09;21.10;1.00
573;DHT22;271;51.114;13.780;2022-08-19T06:44:41;21.10;1.00
573;DHT22;271;51.114;13.780;2022-08-19T06:47:10;21.10;1.00
573;DHT22;271;51.114;13.780;2022-08-19T06:49:37;21.10;1.00
573;DHT22;271;51.114;13.780;2022-08-19T06:52:05;21.20;1.00
573;DHT22;271;51.114;13.780;2022-08-19T06:54:32;21.20;1.00
573;DHT22;271;51.114;13.780;2022-08-19T06:57:00;21.10;1.00
573;DHT22;271;51.114;13.780;2022-08-19T06:59:28;21.10;1.00
573;DHT22;271;51.114;13.780;2022-08-19T07:02:00;21.10;1.00
573;DHT22;271;51.114;13.780;2022-08-19T07:04:29;21.10;1.00
573;DHT22;271;51.114;13.780;2022-08-19T07:06:59;21.10;1.00
573;DHT22;271;51.114;13.780;2022-08-19T07:09:26;21.20;1.00
573;DHT22;271;51.114;13.780;2022-08-19T07:11:54;21.20;1.00
573;DHT22;271;51.114;13.780;2022-08-19T07:14:23;21.10;1.00
573;DHT22;271;51.114;13.780;2022-08-19T07:16:52;21.20;1.00
573;DHT22;271;51.114;13.780;2022-08-19T07:19:23;21.10;1.00
573;DHT22;271;51.114;13.780;2022-08-19T07:21:51;21.20;1.00
573;DHT22;271;51.114;13.780;2022-08-19T07:24:20;21.20;1.00
573;DHT22;271;51.114;13.780;2022-08-19T07:26:50;21.20;1.00
573;DHT22;271;51.114;13.780;2022-08-19T07:29:18;21.30;1.00
573;DHT22;271;51.114;13.780;2022-08-19T07:31:48;21.30;1.00
573;DHT22;271;51.114;13.780;2022-08-19T07:34:16;21.20;1.00
573;DHT22;271;51.114;13.780;2022-08-19T07:36:45;21.20;1.00
573;DHT22;271;51.114;13.780;2022-08-19T07:39:13;21.20;1.00
573;DHT22;271;51.114;13.780;2022-08-19T07:41:41;21.20;1.00
573;DHT22;271;51.114;13.780;2022-08-19T07:44:08;21.20;1.00
573;DHT22;271;51.114;13.780;2022-08-19T07:46:39;21.20;1.00
573;DHT22;271;51.114;13.780;2022-08-19T07:49:07;21.20;1.00
573;DHT22;271;51.114;13.780;2022-08-19T07:51:46;21.10;1.00
573;DHT22;271;51.114;13.780;2022-08-19T07:54:14;21.00;1.00
573;DHT22;271;51.114;13.780;2022-08-19T07:56:41;21.00;1.00
573;DHT22;271;51.114;13.780;2022-08-19T07:59:07;21.00;1.00
573;DHT22;271;51.114;13.780;2022-08-19T08:01:36;21.00;1.00
573;DHT22;271;51.114;13.780;2022-08-19T08:04:03;21.10;1.00
573;DHT22;271;51.114;13.780;2022-08-19T08:06:50;21.10;1.00
573;DHT22;271;51.114;13.780;2022-08-19T08:09:38;21.10;1.00
573;DHT22;271;51.114;13.780;2022-08-19T08:12:07;21.00;1.00
573;DHT22;271;51.114;13.780;2022-08-19T08:14:57;21.00;1.00
573;DHT22;271;51.114;13.780;2022-08-19T08:17:26;21.00;1.00
573;DHT22;271;51.114;13.780;2022-08-19T08:19:54;21.00;1.00
573;DHT22;271;51.114;13.780;2022-08-19T08:22:31;20.90;1.00
573;DHT22;271;51.114;13.780;2022-08-19T08:25:18;20.90;1.00
573;DHT22;271;51.114;13.780;2022-08-19T08:27:46;20.90;1.00
573;DHT22;271;51.114;13.780;2022-08-19T08:30:18;20.90;1.00
573;DHT22;271;51.114;13.780;2022-08-19T08:32:45;20.90;1.00
573;DHT22;271;51.114;13.780;2022-08-19T08:35:15;20.90;1.00
573;DHT22;271;51.114;13.780;2022-08-19T08:37:45;20.90;1.00
573;DHT22;271;51.114;13.780;2022-08-19T08:40:20;20.90;1.00
573;DHT22;271;51.114;13.780;2022-08-19T08:43:04;20.90;1.00
573;DHT22;271;51.114;13.780;2022-08-19T08:45:35;20.90;1.00
573;DHT22;271;51.114;13.780;2022-08-19T08:48:18;21.00;1.00
573;DHT22;271;51.114;13.780;2022-08-19T08:50:51;21.00;1.00
573;DHT22;271;51.114;13.780;2022-08-19T08:53:22;21.00;1.00
573;DHT22;271;51.114;13.780;2022-08-19T08:55:49;21.00;1.00
573;DHT22;271;51.114;13.780;2022-08-19T08:58:40;21.10;1.00
573;DHT22;271;51.114;13.780;2022-08-19T09:01:09;21.10;1.00
573;DHT22;271;51.114;13.780;2022-08-19T09:03:37;21.20;1.00
573;DHT22;271;51.114;13.780;2022-08-19T09:06:07;21.20;1.00
573;DHT22;271;51.114;13.780;2022-08-19T09:09:00;21.20;1.00
573;DHT22;271;51.114;13.780;2022-08-19T09:11:38;21.30;1.00
573;DHT22;271;51.114;13.780;2022-08-19T09:14:37;21.30;1.00
573;DHT22;271;51.114;13.780;2022-08-19T09:17:07;21.30;1.00
573;DHT22;271;51.114;13.780;2022-08-19T09:19:35;21.40;1.00
573;DHT22;271;51.114;13.780;2022-08-19T09:22:02;21.50;1.00
573;DHT22;271;51.114;13.780;2022-08-19T09:24:43;21.60;1.00
573;DHT22;271;51.114;13.780;2022-08-19T09:27:10;21.70;1.00
573;DHT22;271;51.114;13.780;2022-08-19T09:29:37;21.70;1.00
573;DHT22;271;51.114;13.780;2022-08-19T09:32:05;21.80;1.00
573;DHT22;271;51.114;13.780;2022-08-19T09:34:38;21.90;1.00
573;DHT22;271;51.114;13.780;2022-08-19T09:37:04;22.00;1.00
573;DHT22;271;51.114;13.780;2022-08-19T09:39:31;22.00;1.00
573;DHT22;271;51.114;13.780;2022-08-19T09:42:00;21.90;1.00
573;DHT22;271;51.114;13.780;2022-08-19T09:44:29;22.00;1.00
573;DHT22;271;51.114;13.780;2022-08-19T09:47:02;22.10;1.00
573;DHT22;271;51.114;13.780;2022-08-19T09:49:29;22.10;1.00
573;DHT22;271;51.114;13.780;2022-08-19T09:51:57;22.10;1.00
573;DHT22;271;51.114;13.780;2022-08-19T09:54:23;22.30;1.00
573;DHT22;271;51.114;13.780;2022-08-19T09:56:51;22.40;1.00
573;DHT22;271;51.114;13.780;2022-08-19T09:59:22;22.40;1.00
573;DHT22;271;51.114;13.780;2022-08-19T10:01:49;22.50;1.00
573;DHT22;271;51.114;13.780;2022-08-19T10:04:17;22.60;1.00
573;DHT22;271;51.114;13.780;2022-08-19T10:06:45;22.70;1.00
573;DHT22;271;51.114;13.780;2022-08-19T10:09:14;22.60;1.00
573;DHT22;271;51.114;13.780;2022-08-19T10:11:43;22.60;1.00
573;DHT22;271;51.114;13.780;2022-08-19T10:14:13;22.60;1.00
573;DHT22;271;51.114;13.780;2022-08-19T10:16:42;22.60;1.00
573;DHT22;271;51.114;13.780;2022-08-19T10:19:09;22.70;1.00
573;DHT22;271;51.114;13.780;2022-08-19T10:21:36;22.70;1.00
573;DHT22;271;51.114;13.780;2022-08-19T10:24:10;22.60;1.00
573;DHT22;271;51.114;13.780;2022-08-19T10:26:39;22.50;1.00
573;DHT22;271;51.114;13.780;2022-08-19T10:29:07;22.40;1.00
573;DHT22;271;51.114;13.780;2022-08-19T10:31:37;22.50;1.00
573;DHT22;271;51.114;13.780;2022-08-19T10:34:06;22.60;1.00
573;DHT22;271;51.114;13.780;2022-08-19T10:36:36;22.70;1.00
573;DHT22;271;51.114;13.780;2022-08-19T10:39:08;22.90;1.00
573;DHT22;271;51.114;13.780;2022-08-19T10:41:37;23.10;1.00
573;DHT22;271;51.114;13.780;2022-08-19T10:44:07;23.10;1.00
573;DHT22;271;51.114;13.780;2022-08-19T10:46:39;23.20;1.00
573;DHT22;271;51.114;13.780;2022-08-19T10:49:10;23.30;1.00
573;DHT22;271;51.114;13.780;2022-08-19T10:51:38;23.40;1.00
573;DHT22;271;51.114;13.780;2022-08-19T10:54:28;23.50;1.00
573;DHT22;271;51.114;13.780;2022-08-19T10:57:08;23.80;1.00
573;DHT22;271;51.114;13.780;2022-08-19T10:59:36;23.80;1.00
573;DHT22;271;51.114;13.780;2022-08-19T11:02:06;23.90;1.00
573;DHT22;271;51.114;13.780;2022-08-19T11:04:42;23.80;1.00
573;DHT22;271;51.114;13.780;2022-08-19T11:07:09;23.70;1.00
573;DHT22;271;51.114;13.780;2022-08-19T11:09:39;23.80;1.00
573;DHT22;271;51.114;13.780;2022-08-19T11:12:07;23.70;1.00
573;DHT22;271;51.114;13.780;2022-08-19T11:14:35;23.60;1.00
573;DHT22;271;51.114;13.780;2022-08-19T11:17:08;23.50;1.00
573;DHT22;271;51.114;13.780;2022-08-19T11:19:36;23.30;1.00
573;DHT22;271;51.114;13.780;2022-08-19T11:22:08;23.20;1.00
573;DHT22;271;51.114;13.780;2022-08-19T11:24:35;23.20;1.00
573;DHT22;271;51.114;13.780;2022-08-19T11:27:05;23.10;1.00
573;DHT22;271;51.114;13.780;2022-08-19T11:29:38;23.20;1.00
573;DHT22;271;51.114;13.780;2022-08-19T11:32:07;23.20;1.00
573;DHT22;271;51.114;13.780;2022-08-19T11:34:35;23.30;1.00
573;DHT22;271;51.114;13.780;2022-08-19T11:37:03;23.30;1.00
573;DHT22;271;51.114;13.780;2022-08-19T11:39:33;23.30;1.00
573;DHT22;271;51.114;13.780;2022-08-19T11:42:01;23.30;1.00
573;DHT22;271;51.114;13.780;2022-08-19T11:44:28;23.20;1.00
573;DHT22;271;51.114;13.780;2022-08-19T11:46:56;23.20;1.00
573;DHT22;271;51.114;13.780;2022-08-19T11:49:23;23.10;1.00
573;DHT22;271;51.114;13.780;2022-08-19T11:51:49;23.00;1.00
573;DHT22;271;51.114;13.780;2022-08-19T11:54:17;23.00;1.00
573;DHT22;271;51.114;13.780;2022-08-19T11:56:45;23.00;1.00
573;DHT22;271;51.114;13.780;2022-08-19T11:59:14;23.00;1.00
573;DHT22;271;51.114;13.780;2022-08-19T12:01:41;23.00;1.00
573;DHT22;271;51.114;13.780;2022-08-19T12:04:09;23.00;1.00
573;DHT22;271;51.114;13.780;2022-08-19T12:06:43;23.00;1.00
573;DHT22;271;51.114;13.780;2022-08-19T12:09:10;22.90;1.00
573;DHT22;271;51.114;13.780;2022-08-19T12:11:37;22.90;1.00
573;DHT22;271;51.114;13.780;2022-08-19T12:14:09;22.90;1.00
573;DHT22;271;51.114;13.780;2022-08-19T12:16:36;22.90;1.00
573;DHT22;271;51.114;13.780;2022-08-19T12:19:05;22.90;1.00
573;DHT22;271;51.114;13.780;2022-08-19T12:21:34;22.90;1.00
573;DHT22;271;51.114;13.780;2022-08-19T12:24:06;23.00;1.00
573;DHT22;271;51.114;13.780;2022-08-19T12:26:33;23.00;1.00
573;DHT22;271;51.114;13.780;2022-08-19T12:29:00;22.90;1.00
573;DHT22;271;51.114;13.780;2022-08-19T12:31:29;22.90;1.00
573;DHT22;271;51.114;13.780;2022-08-19T12:33:57;22.90;1.00
573;DHT22;271;51.114;13.780;2022-08-19T12:36:24;22.90;1.00
573;DHT22;271;51.114;13.780;2022-08-19T12:38:52;23.00;1.00
573;DHT22;271;51.114;13.780;2022-08-19T12:41:19;23.10;1.00
573;DHT22;271;51.114;13.780;2022-08-19T12:43:51;23.20;1.00
573;DHT22;271;51.114;13.780;2022-08-19T12:46:19;23.30;1.00
573;DHT22;271;51.114;13.780;2022-08-19T12:48:47;23.50;1.00
573;DHT22;271;51.114;13.780;2022-08-19T12:51:16;23.60;1.00
573;DHT22;271;51.114;13.780;2022-08-19T12:56:41;23.70;1.00
573;DHT22;271;51.114;13.780;2022-08-19T12:59:10;23.70;1.00
573;DHT22;271;51.114;13.780;2022-08-19T13:01:37;23.70;1.00
573;DHT22;271;51.114;13.780;2022-08-19T13:04:14;23.70;1.00
573;DHT22;271;51.114;13.780;2022-08-19T13:06:47;23.70;1.00
573;DHT22;271;51.114;13.780;2022-08-19T13:09:14;23.60;1.00
573;DHT22;271;51.114;13.780;2022-08-19T13:11:41;23.60;1.00
573;DHT22;271;51.114;13.780;2022-08-19T13:14:09;23.50;1.00
573;DHT22;271;51.114;13.780;2022-08-19T13:16:45;23.40;1.00
573;DHT22;271;51.114;13.780;2022-08-19T13:19:13;23.30;1.00
573;DHT22;271;51.114;13.780;2022-08-19T13:21:42;23.30;1.00
573;DHT22;271;51.114;13.780;2022-08-19T13:24:08;23.20;1.00
573;DHT22;271;51.114;13.780;2022-08-19T13:26:41;23.20;1.00
573;DHT22;271;51.114;13.780;2022-08-19T13:29:08;23.20;1.00
573;DHT22;271;51.114;13.780;2022-08-19T13:31:53;23.10;1.00
573;DHT22;271;51.114;13.780;2022-08-19T13:34:40;23.10;1.00
573;DHT22;271;51.114;13.780;2022-08-19T13:37:08;22.90;1.00
573;DHT22;271;51.114;13.780;2022-08-19T13:39:35;22.90;1.00
573;DHT22;271;51.114;13.780;2022-08-19T13:42:02;22.90;1.00
573;DHT22;271;51.114;13.780;2022-08-19T13:44:31;23.00;1.00
573;DHT22;271;51.114;13.780;2022-08-19T13:47:11;22.90;1.00
573;DHT22;271;51.114;13.780;2022-08-19T13:49:40;22.90;1.00
573;DHT22;271;51.114;13.780;2022-08-19T13:52:08;22.90;1.00
573;DHT22;271;51.114;13.780;2022-08-19T13:54:38;22.90;1.00
573;DHT22;271;51.114;13.780;2022-08-19T13:57:05;22.90;1.00
573;DHT22;271;51.114;13.780;2022-08-19T13:59:32;22.80;1.00
573;DHT22;271;51.114;13.780;2022-08-19T14:01:59;22.80;1.00
573;DHT22;271;51.114;13.780;2022-08-19T14:04:27;22.80;1.00
573;DHT22;271;51.114;13.780;2022-08-19T14:06:53;22.80;1.00
573;DHT22;271;51.114;13.780;2022-08-19T14:09:22;22.70;1.00
573;DHT22;271;51.114;13.780;2022-08-19T14:11:56;22.70;1.00
573;DHT22;271;51.114;13.780;2022-08-19T14:14:23;22.60;1.00
573;DHT22;271;51.114;13.780;2022-08-19T14:16:50;22.60;1.00
573;DHT22;271;51.114;13.780;2022-08-19T14:19:18;22.60;1.00
573;DHT22;271;51.114;13.780;2022-08-19T14:21:44;22.60;1.00
573;DHT22;271;51.114;13.780;2022-08-19T14:24:16;22.50;1.00
573;DHT22;271;51.114;13.780;2022-08-19T14:26:44;22.50;1.00
573;DHT22;271;51.114;13.780;2022-08-19T14:29:11;22.40;1.00
573;DHT22;271;51.114;13.780;2022-08-19T14:31:38;22.40;1.00
573;DHT22;271;51.114;13.780;2022-08-19T14:34:06;22.40;1.00
573;DHT22;271;51.114;13.780;2022-08-19T14:36:35;22.40;1.00
573;DHT22;271;51.114;13.780;2022-08-19T14:39:02;22.50;1.00
573;DHT22;271;51.114;13.780;2022-08-19T14:41:29;22.50;1.00
573;DHT22;271;51.114;13.780;2022-08-19T14:43:57;22.50;1.00
573;DHT22;271;51.114;13.780;2022-08-19T14:46:26;22.50;1.00
573;DHT22;271;51.114;13.780;2022-08-19T14:49:07;22.50;1.00
573;DHT22;271;51.114;13.780;2022-08-19T14:51:34;22.40;1.00
573;DHT22;271;51.114;13.780;2022-08-19T14:54:00;22.30;1.00
573;DHT22;271;51.114;13.780;2022-08-19T14:56:29;22.20;1.00
573;DHT22;271;51.114;13.780;2022-08-19T14:59:05;22.30;1.00
573;DHT22;271;51.114;13.780;2022-08-19T15:01:34;22.20;1.00
573;DHT22;271;51.114;13.780;2022-08-19T15:04:00;22.30;1.00
573;DHT22;271;51.114;13.780;2022-08-19T15:06:27;22.30;1.00
573;DHT22;271;51.114;13.780;2022-08-19T15:08:55;22.30;1.00
573;DHT22;271;51.114;13.780;2022-08-19T15:11:26;22.30;1.00
573;DHT22;271;51.114;13.780;2022-08-19T15:13:54;22.40;1.00
573;DHT22;271;51.114;13.780;2022-08-19T15:16:23;22.40;1.00
573;DHT22;271;51.114;13.780;2022-08-19T15:18:51;22.40;1.00
573;DHT22;271;51.114;13.780;2022-08-19T15:21:19;22.40;1.00
573;DHT22;271;51.114;13.780;2022-08-19T15:23:50;22.30;1.00
573;DHT22;271;51.114;13.780;2022-08-19T15:26:18;22.40;1.00
573;DHT22;271;51.114;13.780;2022-08-19T15:28:46;22.40;1.00
573;DHT22;271;51.114;13.780;2022-08-19T15:31:17;22.30;1.00
573;DHT22;271;51.114;13.780;2022-08-19T15:33:45;22.40;1.00
573;DHT22;271;51.114;13.780;2022-08-19T15:36:13;22.40;1.00
573;DHT22;271;51.114;13.780;2022-08-19T15:38:41;22.40;1.00
573;DHT22;271;51.114;13.780;2022-08-19T15:41:16;22.30;1.00
573;DHT22;271;51.114;13.780;2022-08-19T15:43:51;22.30;1.00
573;DHT22;271;51.114;13.780;2022-08-19T15:46:20;22.30;1.00
573;DHT22;271;51.114;13.780;2022-08-19T15:48:51;22.30;1.00
573;DHT22;271;51.114;13.780;2022-08-19T15:51:18;22.20;1.00
573;DHT22;271;51.114;13.780;2022-08-19T15:53:45;22.20;1.00
573;DHT22;271;51.114;13.780;2022-08-19T15:56:14;22.30;1.00
573;DHT22;271;51.114;13.780;2022-08-19T15:58:41;22.30;1.00
573;DHT22;271;51.114;13.780;2022-08-19T16:01:25;22.30;1.00
573;DHT22;271;51.114;13.780;2022-08-19T16:04:11;22.40;1.00
573;DHT22;271;51.114;13.780;2022-08-19T16:06:57;22.40;1.00
573;DHT22;271;51.114;13.780;2022-08-19T16:09:26;22.30;1.00
573;DHT22;271;51.114;13.780;2022-08-19T16:11:54;22.30;1.00
573;DHT22;271;51.114;13.780;2022-08-19T16:14:24;22.40;1.00
573;DHT22;271;51.114;13.780;2022-08-19T16:16:54;22.40;1.00
573;DHT22;271;51.114;13.780;2022-08-19T16:19:24;22.30;1.00
573;DHT22;271;51.114;13.780;2022-08-19T16:21:55;22.40;1.00
573;DHT22;271;51.114;13.780;2022-08-19T16:24:27;22.40;1.00
573;DHT22;271;51.114;13.780;2022-08-19T16:26:55;22.30;1.00
573;DHT22;271;51.114;13.780;2022-08-19T16:29:22;22.30;1.00
573;DHT22;271;51.114;13.780;2022-08-19T16:31:49;22.30;1.00
573;DHT22;271;51.114;13.780;2022-08-19T16:34:19;22.30;1.00
573;DHT22;271;51.114;13.780;2022-08-19T16:36:48;22.20;1.00
573;DHT22;271;51.114;13.780;2022-08-19T16:39:16;22.20;1.00
573;DHT22;271;51.114;13.780;2022-08-19T16:41:46;22.20;1.00
573;DHT22;271;51.114;13.780;2022-08-19T16:44:14;22.20;1.00
573;DHT22;271;51.114;13.780;2022-08-19T16:46:42;22.20;1.00
573;DHT22;271;51.114;13.780;2022-08-19T16:49:12;22.20;1.00
573;DHT22;271;51.114;13.780;2022-08-19T16:51:40;22.20;1.00